Sao Joao da Mata, Brazil
Current Conditions -  °F | °C
As of 7:00 AM on Monday 24 Nov 2014 (Local Time) from SBGW Reporting Station
Haze Haze  
Wind Chill: 70°   Ceiling: 2000
Heat Index: 70°   Visibility: 2.5mi
Dew Point: 66°   Wind: 3mph
Humidity: 88%   Direction: 50°NE
Pressure: 30.03"   Gusts: NA
Location:  21.93°S, 45.93°W
Report Text: SBGW 240900Z 05003KT 4000 BR FEW008 BKN020 BKN080 21/19 Q1017
Loading
Personal Weather Stations






























Interactive Weather Map New forecast layout! Learn more

10-Day Weather Forecast

Advertisements
Track Severe Weather on mobile